sensor_id;sensor_type;location;lat;lon;timestamp;pressure;altitude;pressure_sealevel;temperature;humidity
706;BME280;21234;48.690;9.016;2023-02-03T00:01:42;97355.22;;;3.22;100.00
706;BME280;21234;48.690;9.016;2023-02-03T00:04:10;97354.75;;;3.18;100.00
706;BME280;21234;48.690;9.016;2023-02-03T00:06:38;97355.31;;;3.28;100.00
706;BME280;21234;48.690;9.016;2023-02-03T00:09:05;97355.41;;;3.20;100.00
706;BME280;21234;48.690;9.016;2023-02-03T00:11:31;97348.53;;;3.18;100.00
706;BME280;21234;48.690;9.016;2023-02-03T00:13:58;97347.81;;;3.24;100.00
706;BME280;21234;48.690;9.016;2023-02-03T00:16:25;97352.63;;;3.28;100.00
706;BME280;21234;48.690;9.016;2023-02-03T00:18:52;97345.41;;;3.29;100.00
706;BME280;21234;48.690;9.016;2023-02-03T00:21:20;97341.00;;;3.36;100.00
706;BME280;21234;48.690;9.016;2023-02-03T00:23:47;97344.22;;;3.31;100.00
706;BME280;21234;48.690;9.016;2023-02-03T00:26:15;97347.75;;;3.32;100.00
706;BME280;21234;48.690;9.016;2023-02-03T00:28:42;97338.34;;;3.28;100.00
706;BME280;21234;48.690;9.016;2023-02-03T00:31:14;97327.06;;;3.32;100.00
706;BME280;21234;48.690;9.016;2023-02-03T00:33:40;97335.00;;;3.26;100.00
706;BME280;21234;48.690;9.016;2023-02-03T00:36:08;97338.34;;;3.28;100.00
706;BME280;21234;48.690;9.016;2023-02-03T00:38:36;97346.91;;;3.31;100.00
706;BME280;21234;48.690;9.016;2023-02-03T00:41:03;97337.16;;;3.30;100.00
706;BME280;21234;48.690;9.016;2023-02-03T00:43:30;97337.91;;;3.24;100.00
706;BME280;21234;48.690;9.016;2023-02-03T00:45:56;97339.44;;;3.19;100.00
706;BME280;21234;48.690;9.016;2023-02-03T00:48:23;97341.31;;;3.18;100.00
706;BME280;21234;48.690;9.016;2023-02-03T00:50:50;97349.00;;;3.21;100.00
706;BME280;21234;48.690;9.016;2023-02-03T00:53:16;97348.00;;;3.22;100.00
706;BME280;21234;48.690;9.016;2023-02-03T00:55:45;97351.03;;;3.19;100.00
706;BME280;21234;48.690;9.016;2023-02-03T00:58:12;97357.06;;;3.21;100.00
706;BME280;21234;48.690;9.016;2023-02-03T01:00:39;97341.63;;;3.23;100.00
706;BME280;21234;48.690;9.016;2023-02-03T01:03:05;97348.19;;;3.21;100.00
706;BME280;21234;48.690;9.016;2023-02-03T01:05:32;97356.41;;;3.19;100.00
706;BME280;21234;48.690;9.016;2023-02-03T01:08:00;97348.19;;;3.21;100.00
706;BME280;21234;48.690;9.016;2023-02-03T01:10:26;97355.50;;;3.27;100.00
706;BME280;21234;48.690;9.016;2023-02-03T01:12:55;97353.19;;;3.24;100.00
706;BME280;21234;48.690;9.016;2023-02-03T01:15:21;97353.97;;;3.32;100.00
706;BME280;21234;48.690;9.016;2023-02-03T01:17:48;97363.22;;;3.30;100.00
706;BME280;21234;48.690;9.016;2023-02-03T01:20:15;97354.50;;;3.28;100.00
706;BME280;21234;48.690;9.016;2023-02-03T01:22:42;97348.44;;;3.26;100.00
706;BME280;21234;48.690;9.016;2023-02-03T01:25:09;97331.13;;;3.28;100.00
706;BME280;21234;48.690;9.016;2023-02-03T01:27:35;97331.63;;;3.32;100.00
706;BME280;21234;48.690;9.016;2023-02-03T01:30:04;97320.69;;;3.33;100.00
706;BME280;21234;48.690;9.016;2023-02-03T01:32:31;97326.38;;;3.38;100.00
706;BME280;21234;48.690;9.016;2023-02-03T01:34:57;97326.53;;;3.37;100.00
706;BME280;21234;48.690;9.016;2023-02-03T01:37:24;97328.75;;;3.33;100.00
706;BME280;21234;48.690;9.016;2023-02-03T01:39:51;97328.53;;;3.43;100.00
706;BME280;21234;48.690;9.016;2023-02-03T01:42:17;97311.56;;;3.43;100.00
706;BME280;21234;48.690;9.016;2023-02-03T01:44:46;97305.16;;;3.44;100.00
706;BME280;21234;48.690;9.016;2023-02-03T01:47:25;97307.84;;;3.44;100.00
706;BME280;21234;48.690;9.016;2023-02-03T01:49:57;97306.34;;;3.41;100.00
706;BME280;21234;48.690;9.016;2023-02-03T01:52:26;97314.97;;;3.36;100.00
706;BME280;21234;48.690;9.016;2023-02-03T01:54:56;97330.19;;;3.44;100.00
706;BME280;21234;48.690;9.016;2023-02-03T01:57:28;97323.31;;;3.42;100.00
706;BME280;21234;48.690;9.016;2023-02-03T01:59:56;97320.47;;;3.43;100.00
706;BME280;21234;48.690;9.016;2023-02-03T02:02:27;97315.63;;;3.38;100.00
706;BME280;21234;48.690;9.016;2023-02-03T02:04:59;97312.09;;;3.38;100.00
706;BME280;21234;48.690;9.016;2023-02-03T02:07:28;97312.22;;;3.45;100.00
706;BME280;21234;48.690;9.016;2023-02-03T02:09:56;97310.53;;;3.44;100.00
706;BME280;21234;48.690;9.016;2023-02-03T02:12:23;97307.56;;;3.38;100.00
706;BME280;21234;48.690;9.016;2023-02-03T02:14:49;97297.81;;;3.37;100.00
706;BME280;21234;48.690;9.016;2023-02-03T02:17:27;97299.50;;;3.38;100.00
706;BME280;21234;48.690;9.016;2023-02-03T02:20:32;97270.59;;;3.41;100.00
706;BME280;21234;48.690;9.016;2023-02-03T02:23:23;97244.47;;;3.49;100.00
706;BME280;21234;48.690;9.016;2023-02-03T02:26:21;97228.88;;;3.45;100.00
706;BME280;21234;48.690;9.016;2023-02-03T02:29:10;97226.56;;;3.42;100.00
706;BME280;21234;48.690;9.016;2023-02-03T02:31:50;97234.44;;;3.43;100.00
706;BME280;21234;48.690;9.016;2023-02-03T02:34:23;97254.28;;;3.42;100.00
706;BME280;21234;48.690;9.016;2023-02-03T02:37:00;97258.16;;;3.40;100.00
706;BME280;21234;48.690;9.016;2023-02-03T02:39:38;97264.84;;;3.44;100.00
706;BME280;21234;48.690;9.016;2023-02-03T02:42:09;97259.00;;;3.40;100.00
706;BME280;21234;48.690;9.016;2023-02-03T02:44:43;97260.84;;;3.40;100.00
706;BME280;21234;48.690;9.016;2023-02-03T02:47:17;97254.44;;;3.41;100.00
706;BME280;21234;48.690;9.016;2023-02-03T02:49:49;97245.19;;;3.43;100.00
706;BME280;21234;48.690;9.016;2023-02-03T02:52:19;97227.88;;;3.46;100.00
706;BME280;21234;48.690;9.016;2023-02-03T02:54:50;97216.28;;;3.45;100.00
706;BME280;21234;48.690;9.016;2023-02-03T02:57:19;97217.13;;;3.46;100.00
706;BME280;21234;48.690;9.016;2023-02-03T02:59:47;97232.88;;;3.49;100.00
706;BME280;21234;48.690;9.016;2023-02-03T03:02:15;97238.63;;;3.46;100.00
706;BME280;21234;48.690;9.016;2023-02-03T03:04:45;97244.66;;;3.48;100.00
706;BME280;21234;48.690;9.016;2023-02-03T03:07:17;97253.66;;;3.55;100.00
706;BME280;21234;48.690;9.016;2023-02-03T03:09:47;97252.66;;;3.56;100.00
706;BME280;21234;48.690;9.016;2023-02-03T03:12:18;97247.53;;;3.61;100.00
706;BME280;21234;48.690;9.016;2023-02-03T03:14:48;97249.38;;;3.60;100.00
706;BME280;21234;48.690;9.016;2023-02-03T03:17:20;97245.13;;;3.66;100.00
706;BME280;21234;48.690;9.016;2023-02-03T03:19:54;97241.31;;;3.60;100.00
706;BME280;21234;48.690;9.016;2023-02-03T03:22:24;97240.78;;;3.65;100.00
706;BME280;21234;48.690;9.016;2023-02-03T03:24:55;97237.91;;;3.66;100.00
706;BME280;21234;48.690;9.016;2023-02-03T03:27:27;97233.34;;;3.67;100.00
706;BME280;21234;48.690;9.016;2023-02-03T03:29:57;97223.81;;;3.64;100.00
706;BME280;21234;48.690;9.016;2023-02-03T03:32:27;97229.38;;;3.63;100.00
706;BME280;21234;48.690;9.016;2023-02-03T03:34:57;97215.63;;;3.58;100.00
706;BME280;21234;48.690;9.016;2023-02-03T03:37:31;97229.91;;;3.58;100.00
706;BME280;21234;48.690;9.016;2023-02-03T03:40:02;97246.34;;;3.63;100.00
706;BME280;21234;48.690;9.016;2023-02-03T03:42:36;97253.38;;;3.64;100.00
706;BME280;21234;48.690;9.016;2023-02-03T03:45:07;97269.16;;;3.67;100.00
706;BME280;21234;48.690;9.016;2023-02-03T03:47:40;97258.75;;;3.64;100.00
706;BME280;21234;48.690;9.016;2023-02-03T03:50:11;97258.75;;;3.64;100.00
706;BME280;21234;48.690;9.016;2023-02-03T03:52:42;97256.19;;;3.71;100.00
706;BME280;21234;48.690;9.016;2023-02-03T03:55:13;97277.03;;;3.69;100.00
706;BME280;21234;48.690;9.016;2023-02-03T03:57:44;97289.09;;;3.73;100.00
706;BME280;21234;48.690;9.016;2023-02-03T04:00:14;97292.81;;;3.72;100.00
706;BME280;21234;48.690;9.016;2023-02-03T04:02:45;97295.13;;;3.75;100.00
706;BME280;21234;48.690;9.016;2023-02-03T04:05:15;97293.84;;;3.71;100.00
706;BME280;21234;48.690;9.016;2023-02-03T04:07:44;97309.13;;;3.70;100.00
706;BME280;21234;48.690;9.016;2023-02-03T04:10:17;97310.16;;;3.69;100.00
706;BME280;21234;48.690;9.016;2023-02-03T04:12:45;97314.38;;;3.64;100.00
706;BME280;21234;48.690;9.016;2023-02-03T04:15:12;97309.78;;;3.72;100.00
706;BME280;21234;48.690;9.016;2023-02-03T04:17:38;97314.09;;;3.59;100.00
706;BME280;21234;48.690;9.016;2023-02-03T04:20:07;97307.16;;;3.64;100.00
706;BME280;21234;48.690;9.016;2023-02-03T04:22:34;97286.00;;;3.61;100.00
706;BME280;21234;48.690;9.016;2023-02-03T04:25:01;97296.75;;;3.61;100.00
706;BME280;21234;48.690;9.016;2023-02-03T04:27:28;97294.25;;;3.60;100.00
706;BME280;21234;48.690;9.016;2023-02-03T04:29:54;97300.66;;;3.59;100.00
706;BME280;21234;48.690;9.016;2023-02-03T04:32:21;97310.03;;;3.63;100.00
706;BME280;21234;48.690;9.016;2023-02-03T04:34:48;97299.81;;;3.58;100.00
706;BME280;21234;48.690;9.016;2023-02-03T04:37:16;97289.63;;;3.54;100.00
706;BME280;21234;48.690;9.016;2023-02-03T04:39:44;97294.00;;;3.55;100.00
706;BME280;21234;48.690;9.016;2023-02-03T04:42:10;97287.41;;;3.57;100.00
706;BME280;21234;48.690;9.016;2023-02-03T04:44:37;97280.56;;;3.55;100.00
706;BME280;21234;48.690;9.016;2023-02-03T04:47:04;97280.38;;;3.56;100.00
706;BME280;21234;48.690;9.016;2023-02-03T04:49:31;97284.25;;;3.54;100.00
706;BME280;21234;48.690;9.016;2023-02-03T04:51:57;97291.47;;;3.53;100.00
706;BME280;21234;48.690;9.016;2023-02-03T04:54:25;97274.34;;;3.54;100.00
706;BME280;21234;48.690;9.016;2023-02-03T04:56:52;97276.91;;;3.48;100.00
706;BME280;21234;48.690;9.016;2023-02-03T04:59:19;97266.69;;;3.43;100.00
706;BME280;21234;48.690;9.016;2023-02-03T05:01:45;97272.06;;;3.43;100.00
706;BME280;21234;48.690;9.016;2023-02-03T05:04:12;97268.44;;;3.36;100.00
706;BME280;21234;48.690;9.016;2023-02-03T05:06:38;97267.88;;;3.41;100.00
706;BME280;21234;48.690;9.016;2023-02-03T05:09:05;97263.59;;;3.31;100.00
706;BME280;21234;48.690;9.016;2023-02-03T05:11:33;97256.47;;;3.38;100.00
706;BME280;21234;48.690;9.016;2023-02-03T05:14:00;97267.41;;;3.37;100.00
706;BME280;21234;48.690;9.016;2023-02-03T05:16:28;97266.75;;;3.35;100.00
706;BME280;21234;48.690;9.016;2023-02-03T05:18:55;97255.88;;;3.28;100.00
706;BME280;21234;48.690;9.016;2023-02-03T05:21:21;97268.97;;;3.31;100.00
706;BME280;21234;48.690;9.016;2023-02-03T05:23:48;97276.50;;;3.36;100.00
706;BME280;21234;48.690;9.016;2023-02-03T05:26:15;97283.25;;;3.32;100.00
706;BME280;21234;48.690;9.016;2023-02-03T05:28:43;97285.94;;;3.32;100.00
706;BME280;21234;48.690;9.016;2023-02-03T05:31:10;97289.09;;;3.35;100.00
706;BME280;21234;48.690;9.016;2023-02-03T05:33:36;97294.66;;;3.34;100.00
706;BME280;21234;48.690;9.016;2023-02-03T05:36:03;97295.84;;;3.31;100.00
706;BME280;21234;48.690;9.016;2023-02-03T05:38:30;97293.81;;;3.33;100.00
706;BME280;21234;48.690;9.016;2023-02-03T05:40:57;97295.00;;;3.31;100.00
706;BME280;21234;48.690;9.016;2023-02-03T05:43:42;97297.34;;;3.34;100.00
706;BME280;21234;48.690;9.016;2023-02-03T05:46:09;97298.00;;;3.36;100.00
706;BME280;21234;48.690;9.016;2023-02-03T05:48:35;97297.63;;;3.39;100.00
706;BME280;21234;48.690;9.016;2023-02-03T05:51:03;97294.13;;;3.38;100.00
706;BME280;21234;48.690;9.016;2023-02-03T05:53:29;97287.25;;;3.36;100.00
706;BME280;21234;48.690;9.016;2023-02-03T05:55:56;97288.09;;;3.36;100.00
706;BME280;21234;48.690;9.016;2023-02-03T05:58:23;97282.59;;;3.30;100.00
706;BME280;21234;48.690;9.016;2023-02-03T06:00:51;97274.47;;;3.38;100.00
706;BME280;21234;48.690;9.016;2023-02-03T06:03:17;97276.31;;;3.37;100.00
706;BME280;21234;48.690;9.016;2023-02-03T06:05:44;97275.00;;;3.33;100.00
706;BME280;21234;48.690;9.016;2023-02-03T06:08:11;97274.81;;;3.35;100.00
706;BME280;21234;48.690;9.016;2023-02-03T06:10:37;97280.19;;;3.35;100.00
706;BME280;21234;48.690;9.016;2023-02-03T06:13:08;97274.94;;;3.42;100.00
706;BME280;21234;48.690;9.016;2023-02-03T06:15:35;97277.63;;;3.42;100.00
706;BME280;21234;48.690;9.016;2023-02-03T06:18:03;97285.69;;;3.42;100.00
706;BME280;21234;48.690;9.016;2023-02-03T06:20:30;97276.25;;;3.46;100.00
706;BME280;21234;48.690;9.016;2023-02-03T06:22:57;97262.63;;;3.47;100.00
706;BME280;21234;48.690;9.016;2023-02-03T06:25:23;97249.00;;;3.49;100.00
706;BME280;21234;48.690;9.016;2023-02-03T06:27:50;97254.38;;;3.49;100.00
706;BME280;21234;48.690;9.016;2023-02-03T06:30:17;97259.66;;;3.42;100.00
706;BME280;21234;48.690;9.016;2023-02-03T06:32:44;97255.75;;;3.45;100.00
706;BME280;21234;48.690;9.016;2023-02-03T06:35:12;97261.78;;;3.47;100.00
706;BME280;21234;48.690;9.016;2023-02-03T06:37:39;97265.31;;;3.47;100.00
706;BME280;21234;48.690;9.016;2023-02-03T06:40:06;97264.31;;;3.48;100.00
706;BME280;21234;48.690;9.016;2023-02-03T06:42:33;97258.75;;;3.50;100.00
706;BME280;21234;48.690;9.016;2023-02-03T06:45:00;97274.69;;;3.51;100.00
706;BME280;21234;48.690;9.016;2023-02-03T06:47:27;97272.84;;;3.52;100.00
706;BME280;21234;48.690;9.016;2023-02-03T06:49:53;97262.63;;;3.47;100.00
706;BME280;21234;48.690;9.016;2023-02-03T06:52:21;97267.53;;;3.44;100.00
706;BME280;21234;48.690;9.016;2023-02-03T06:54:48;97245.38;;;3.42;100.00
706;BME280;21234;48.690;9.016;2023-02-03T06:57:15;97252.41;;;3.43;100.00
706;BME280;21234;48.690;9.016;2023-02-03T06:59:42;97250.38;;;3.45;100.00
706;BME280;21234;48.690;9.016;2023-02-03T07:02:09;97248.91;;;3.42;100.00
706;BME280;21234;48.690;9.016;2023-02-03T07:04:36;97251.09;;;3.38;100.00
706;BME280;21234;48.690;9.016;2023-02-03T07:07:03;97243.09;;;3.30;100.00
706;BME280;21234;48.690;9.016;2023-02-03T07:09:31;97237.06;;;3.28;100.00
706;BME280;21234;48.690;9.016;2023-02-03T07:11:58;97247.75;;;3.22;100.00
706;BME280;21234;48.690;9.016;2023-02-03T07:14:25;97244.56;;;3.18;100.00
706;BME280;21234;48.690;9.016;2023-02-03T07:16:51;97239.84;;;3.20;100.00
706;BME280;21234;48.690;9.016;2023-02-03T07:19:18;97232.50;;;3.14;100.00
706;BME280;21234;48.690;9.016;2023-02-03T07:21:45;97243.25;;;3.14;100.00
706;BME280;21234;48.690;9.016;2023-02-03T07:24:12;97251.97;;;3.16;100.00
706;BME280;21234;48.690;9.016;2023-02-03T07:26:40;97251.66;;;3.11;100.00
706;BME280;21234;48.690;9.016;2023-02-03T07:29:06;97244.44;;;3.12;100.00
706;BME280;21234;48.690;9.016;2023-02-03T07:31:33;97232.22;;;3.09;100.00
706;BME280;21234;48.690;9.016;2023-02-03T07:34:00;97230.34;;;3.10;100.00
706;BME280;21234;48.690;9.016;2023-02-03T07:36:27;97236.94;;;3.07;100.00
706;BME280;21234;48.690;9.016;2023-02-03T07:38:54;97232.09;;;3.02;100.00
706;BME280;21234;48.690;9.016;2023-02-03T07:41:21;97227.50;;;3.11;100.00
706;BME280;21234;48.690;9.016;2023-02-03T07:43:49;97236.34;;;3.20;100.00
706;BME280;21234;48.690;9.016;2023-02-03T07:46:16;97233.53;;;3.13;100.00
706;BME280;21234;48.690;9.016;2023-02-03T07:48:42;97251.63;;;3.19;100.00
706;BME280;21234;48.690;9.016;2023-02-03T07:51:09;97263.69;;;3.23;100.00
706;BME280;21234;48.690;9.016;2023-02-03T07:53:36;97271.19;;;3.28;100.00
706;BME280;21234;48.690;9.016;2023-02-03T07:56:03;97273.88;;;3.28;100.00
706;BME280;21234;48.690;9.016;2023-02-03T07:58:31;97282.09;;;3.26;100.00
706;BME280;21234;48.690;9.016;2023-02-03T08:00:59;97284.34;;;3.23;100.00
706;BME280;21234;48.690;9.016;2023-02-03T08:03:26;97290.56;;;3.23;100.00
706;BME280;21234;48.690;9.016;2023-02-03T08:05:52;97285.44;;;3.28;100.00
706;BME280;21234;48.690;9.016;2023-02-03T08:08:19;97292.50;;;3.29;100.00
706;BME280;21234;48.690;9.016;2023-02-03T08:10:46;97308.63;;;3.29;100.00
706;BME280;21234;48.690;9.016;2023-02-03T08:13:12;97323.06;;;3.28;100.00
706;BME280;21234;48.690;9.016;2023-02-03T08:15:39;97310.13;;;3.32;100.00
706;BME280;21234;48.690;9.016;2023-02-03T08:18:07;97306.41;;;3.33;100.00
706;BME280;21234;48.690;9.016;2023-02-03T08:20:34;97306.72;;;3.38;100.00
706;BME280;21234;48.690;9.016;2023-02-03T08:23:00;97307.72;;;3.37;100.00
706;BME280;21234;48.690;9.016;2023-02-03T08:25:27;97298.47;;;3.40;100.00
706;BME280;21234;48.690;9.016;2023-02-03T08:27:54;97293.09;;;3.40;100.00
706;BME280;21234;48.690;9.016;2023-02-03T08:30:21;97309.16;;;3.48;100.00
706;BME280;21234;48.690;9.016;2023-02-03T08:32:48;97319.91;;;3.48;100.00
706;BME280;21234;48.690;9.016;2023-02-03T08:35:16;97328.53;;;3.43;100.00
706;BME280;21234;48.690;9.016;2023-02-03T08:37:43;97326.13;;;3.48;100.00
706;BME280;21234;48.690;9.016;2023-02-03T08:40:11;97326.78;;;3.50;100.00
706;BME280;21234;48.690;9.016;2023-02-03T08:42:38;97327.28;;;3.54;100.00
706;BME280;21234;48.690;9.016;2023-02-03T08:45:05;97316.25;;;3.63;100.00
706;BME280;21234;48.690;9.016;2023-02-03T08:47:32;97314.56;;;3.62;100.00
706;BME280;21234;48.690;9.016;2023-02-03T08:50:01;97328.50;;;3.66;100.00
706;BME280;21234;48.690;9.016;2023-02-03T08:52:29;97333.34;;;3.70;100.00
706;BME280;21234;48.690;9.016;2023-02-03T08:54:55;97325.44;;;3.69;100.00
706;BME280;21234;48.690;9.016;2023-02-03T08:57:22;97326.94;;;3.71;100.00
706;BME280;21234;48.690;9.016;2023-02-03T08:59:49;97324.00;;;3.81;100.00
706;BME280;21234;48.690;9.016;2023-02-03T09:02:17;97317.69;;;3.74;100.00
706;BME280;21234;48.690;9.016;2023-02-03T09:04:46;97322.03;;;3.75;100.00
706;BME280;21234;48.690;9.016;2023-02-03T09:07:13;97332.44;;;3.78;100.00
706;BME280;21234;48.690;9.016;2023-02-03T09:09:42;97319.47;;;3.82;100.00
706;BME280;21234;48.690;9.016;2023-02-03T09:12:09;97322.03;;;3.75;100.00
706;BME280;21234;48.690;9.016;2023-02-03T09:14:37;97318.56;;;3.89;100.00
706;BME280;21234;48.690;9.016;2023-02-03T09:17:04;97305.09;;;3.89;100.00
706;BME280;21234;48.690;9.016;2023-02-03T09:19:32;97299.31;;;3.92;100.00
706;BME280;21234;48.690;9.016;2023-02-03T09:21:59;97297.59;;;3.99;100.00
706;BME280;21234;48.690;9.016;2023-02-03T09:24:26;97283.03;;;4.09;100.00
706;BME280;21234;48.690;9.016;2023-02-03T09:26:54;97289.63;;;4.06;100.00
706;BME280;21234;48.690;9.016;2023-02-03T09:29:21;97294.25;;;4.12;100.00
706;BME280;21234;48.690;9.016;2023-02-03T09:31:48;97285.28;;;4.20;100.00
706;BME280;21234;48.690;9.016;2023-02-03T09:34:17;97295.63;;;4.23;100.00
706;BME280;21234;48.690;9.016;2023-02-03T09:36:43;97305.19;;;4.25;100.00
706;BME280;21234;48.690;9.016;2023-02-03T09:39:10;97316.72;;;4.34;100.00
706;BME280;21234;48.690;9.016;2023-02-03T09:44:32;97301.94;;;4.30;100.00
706;BME280;21234;48.690;9.016;2023-02-03T09:47:09;97311.34;;;4.34;100.00
706;BME280;21234;48.690;9.016;2023-02-03T09:49:40;97320.53;;;4.39;100.00
706;BME280;21234;48.690;9.016;2023-02-03T09:52:11;97318.50;;;4.42;100.00
706;BME280;21234;48.690;9.016;2023-02-03T09:54:43;97312.84;;;4.51;100.00
706;BME280;21234;48.690;9.016;2023-02-03T09:57:17;97314.75;;;4.57;100.00
706;BME280;21234;48.690;9.016;2023-02-03T09:59:47;97309.03;;;4.46;100.00
706;BME280;21234;48.690;9.016;2023-02-03T10:02:26;97313.84;;;4.50;100.00
706;BME280;21234;48.690;9.016;2023-02-03T10:04:59;97315.53;;;4.51;100.00
706;BME280;21234;48.690;9.016;2023-02-03T10:07:31;97308.44;;;4.65;100.00
706;BME280;21234;48.690;9.016;2023-02-03T10:10:10;97293.09;;;4.65;100.00
706;BME280;21234;48.690;9.016;2023-02-03T10:12:48;97291.44;;;4.64;100.00
706;BME280;21234;48.690;9.016;2023-02-03T10:15:42;97287.91;;;4.64;100.00
706;BME280;21234;48.690;9.016;2023-02-03T10:18:15;97280.09;;;4.69;100.00
706;BME280;21234;48.690;9.016;2023-02-03T10:20:46;97284.00;;;4.66;100.00
706;BME280;21234;48.690;9.016;2023-02-03T10:23:15;97278.81;;;4.65;100.00
706;BME280;21234;48.690;9.016;2023-02-03T10:25:47;97296.44;;;4.67;100.00
706;BME280;21234;48.690;9.016;2023-02-03T10:28:21;97307.88;;;4.69;100.00
706;BME280;21234;48.690;9.016;2023-02-03T10:30:53;97318.66;;;4.69;100.00
706;BME280;21234;48.690;9.016;2023-02-03T10:33:24;97318.47;;;4.71;100.00
706;BME280;21234;48.690;9.016;2023-02-03T10:35:53;97310.84;;;4.60;100.00
706;BME280;21234;48.690;9.016;2023-02-03T10:38:34;97309.28;;;4.65;100.00
706;BME280;21234;48.690;9.016;2023-02-03T10:41:05;97307.31;;;4.74;100.00
706;BME280;21234;48.690;9.016;2023-02-03T10:43:32;97312.69;;;4.74;100.00
706;BME280;21234;48.690;9.016;2023-02-03T10:46:18;97305.34;;;4.83;100.00
706;BME280;21234;48.690;9.016;2023-02-03T10:48:46;97311.44;;;4.91;100.00
706;BME280;21234;48.690;9.016;2023-02-03T10:51:18;97307.34;;;4.95;100.00
706;BME280;21234;48.690;9.016;2023-02-03T10:53:46;97292.84;;;4.96;100.00
706;BME280;21234;48.690;9.016;2023-02-03T10:56:15;97282.03;;;5.11;100.00
706;BME280;21234;48.690;9.016;2023-02-03T10:58:48;97271.97;;;5.20;100.00
706;BME280;21234;48.690;9.016;2023-02-03T11:01:18;97258.03;;;5.16;100.00
706;BME280;21234;48.690;9.016;2023-02-03T11:03:54;97238.63;;;5.27;100.00
706;BME280;21234;48.690;9.016;2023-02-03T11:06:22;97238.44;;;5.29;100.00
706;BME280;21234;48.690;9.016;2023-02-03T11:08:49;97234.53;;;5.31;100.00
706;BME280;21234;48.690;9.016;2023-02-03T11:11:20;97245.44;;;5.23;100.00
706;BME280;21234;48.690;9.016;2023-02-03T11:13:52;97252.75;;;5.29;100.00
706;BME280;21234;48.690;9.016;2023-02-03T11:16:20;97251.66;;;5.24;100.00
706;BME280;21234;48.690;9.016;2023-02-03T11:18:55;97247.75;;;5.26;100.00
706;BME280;21234;48.690;9.016;2023-02-03T11:21:25;97245.69;;;5.28;100.00
706;BME280;21234;48.690;9.016;2023-02-03T11:23:56;97242.25;;;5.34;100.00
706;BME280;21234;48.690;9.016;2023-02-03T11:26:30;97239.41;;;5.43;100.00
706;BME280;21234;48.690;9.016;2023-02-03T11:28:59;97240.81;;;5.38;100.00
706;BME280;21234;48.690;9.016;2023-02-03T11:31:30;97246.66;;;5.42;100.00
706;BME280;21234;48.690;9.016;2023-02-03T11:34:00;97237.03;;;5.33;100.00
706;BME280;21234;48.690;9.016;2023-02-03T11:36:29;97241.53;;;5.26;100.00
706;BME280;21234;48.690;9.016;2023-02-03T11:39:13;97233.25;;;5.27;100.00
706;BME280;21234;48.690;9.016;2023-02-03T11:41:41;97232.28;;;5.35;100.00
706;BME280;21234;48.690;9.016;2023-02-03T11:44:16;97238.72;;;5.34;100.00
706;BME280;21234;48.690;9.016;2023-02-03T11:46:46;97245.06;;;5.26;100.00
706;BME280;21234;48.690;9.016;2023-02-03T11:49:32;97245.06;;;5.26;99.59
706;BME280;21234;48.690;9.016;2023-02-03T11:52:09;97233.25;;;5.27;100.00
706;BME280;21234;48.690;9.016;2023-02-03T11:54:48;97239.28;;;5.29;99.76
706;BME280;21234;48.690;9.016;2023-02-03T11:57:26;97210.25;;;5.31;99.24
706;BME280;21234;48.690;9.016;2023-02-03T12:00:12;97213.72;;;5.47;100.00
706;BME280;21234;48.690;9.016;2023-02-03T12:05:57;97211.69;;;5.49;99.52
706;BME280;21234;48.690;9.016;2023-02-03T12:08:36;97220.41;;;5.51;99.29
706;BME280;21234;48.690;9.016;2023-02-03T12:11:10;97210.44;;;5.51;99.16
706;BME280;21234;48.690;9.016;2023-02-03T12:13:58;97206.31;;;5.55;98.68
706;BME280;21234;48.690;9.016;2023-02-03T12:16:44;97205.38;;;5.42;96.39
706;BME280;21234;48.690;9.016;2023-02-03T12:19:20;97220.41;;;5.51;97.82
706;BME280;21234;48.690;9.016;2023-02-03T12:21:56;97208.81;;;5.57;97.64
706;BME280;21234;48.690;9.016;2023-02-03T12:24:33;97210.91;;;5.61;96.47
706;BME280;21234;48.690;9.016;2023-02-03T12:27:12;97201.03;;;5.68;96.90
706;BME280;21234;48.690;9.016;2023-02-03T12:29:45;97203.72;;;5.68;95.73
706;BME280;21234;48.690;9.016;2023-02-03T12:32:19;97220.09;;;5.67;95.54
706;BME280;21234;48.690;9.016;2023-02-03T12:34:52;97211.13;;;5.60;95.72
706;BME280;21234;48.690;9.016;2023-02-03T12:37:24;97206.91;;;5.51;94.58
706;BME280;21234;48.690;9.016;2023-02-03T12:39:56;97202.03;;;5.39;95.30
706;BME280;21234;48.690;9.016;2023-02-03T12:42:27;97196.22;;;5.36;95.58
706;BME280;21234;48.690;9.016;2023-02-03T12:45:00;97191.66;;;5.36;95.97
706;BME280;21234;48.690;9.016;2023-02-03T12:47:33;97194.16;;;5.38;96.71
706;BME280;21234;48.690;9.016;2023-02-03T12:50:06;97193.25;;;5.31;95.46
706;BME280;21234;48.690;9.016;2023-02-03T12:52:42;97199.09;;;5.34;96.23
706;BME280;21234;48.690;9.016;2023-02-03T12:55:19;97195.63;;;5.40;96.18
706;BME280;21234;48.690;9.016;2023-02-03T12:57:50;97193.75;;;5.41;94.27
706;BME280;21234;48.690;9.016;2023-02-03T13:00:35;97191.47;;;5.38;93.76
706;BME280;21234;48.690;9.016;2023-02-03T13:03:15;97156.84;;;5.42;93.03
706;BME280;21234;48.690;9.016;2023-02-03T13:05:48;97150.81;;;5.39;93.12
706;BME280;21234;48.690;9.016;2023-02-03T13:08:22;97147.47;;;5.37;92.25
706;BME280;21234;48.690;9.016;2023-02-03T13:10:54;97141.06;;;5.38;92.78
706;BME280;21234;48.690;9.016;2023-02-03T13:13:30;97153.13;;;5.43;92.40
706;BME280;21234;48.690;9.016;2023-02-03T13:16:01;97160.44;;;5.49;92.76
706;BME280;21234;48.690;9.016;2023-02-03T13:18:33;97140.47;;;5.43;91.86
706;BME280;21234;48.690;9.016;2023-02-03T13:21:03;97138.03;;;5.48;90.76
706;BME280;21234;48.690;9.016;2023-02-03T13:23:31;97127.44;;;5.47;91.59
706;BME280;21234;48.690;9.016;2023-02-03T13:26:17;97126.59;;;5.46;91.45
706;BME280;21234;48.690;9.016;2023-02-03T13:29:04;97129.94;;;5.55;91.45
706;BME280;21234;48.690;9.016;2023-02-03T13:31:42;97144.06;;;5.50;91.49
706;BME280;21234;48.690;9.016;2023-02-03T13:34:49;97136.75;;;5.44;92.22
706;BME280;21234;48.690;9.016;2023-02-03T13:37:40;97133.91;;;5.52;91.95
706;BME280;21234;48.690;9.016;2023-02-03T13:40:27;97152.16;;;5.50;90.32
706;BME280;21234;48.690;9.016;2023-02-03T13:43:00;97140.09;;;5.46;90.90
706;BME280;21234;48.690;9.016;2023-02-03T13:45:31;97141.13;;;5.45;90.68